createdAt,value
2022-08-17T00:00:17.294Z,25.91
2022-08-17T00:03:13.510Z,25.92
2022-08-17T00:05:46.241Z,25.93
2022-08-17T00:08:18.463Z,25.93
2022-08-17T00:10:47.479Z,25.91
2022-08-17T00:13:18.726Z,25.87
2022-08-17T00:15:47.259Z,25.85
2022-08-17T00:19:02.417Z,25.85
2022-08-17T00:21:10.454Z,25.83
2022-08-17T00:23:44.305Z,25.83
2022-08-17T00:26:16.239Z,25.83
2022-08-17T00:29:04.184Z,25.80
2022-08-17T00:31:32.131Z,25.77
2022-08-17T00:34:00.006Z,25.75
2022-08-17T00:36:28.092Z,25.69
2022-08-17T00:38:57.337Z,25.60
2022-08-17T00:41:27.495Z,25.53
2022-08-17T00:43:58.395Z,25.48
2022-08-17T00:46:31.121Z,25.47
2022-08-17T00:48:59.744Z,25.41
2022-08-17T00:51:34.591Z,25.37
2022-08-17T00:54:09.580Z,25.31
2022-08-17T00:56:42.780Z,25.27
2022-08-17T00:59:15.298Z,25.20
2022-08-17T01:01:43.596Z,25.12
2022-08-17T01:04:13.970Z,25.10
2022-08-17T01:06:46.959Z,25.07
2022-08-17T01:09:17.101Z,25.04
2022-08-17T01:11:45.920Z,25.02
2022-08-17T01:14:14.462Z,25.01
2022-08-17T01:16:42.350Z,25.00
2022-08-17T01:19:20.261Z,25.02
2022-08-17T01:21:54.225Z,24.99
2022-08-17T01:24:23.617Z,25.01
2022-08-17T01:26:51.507Z,25.02
2022-08-17T01:29:21.244Z,25.01
2022-08-17T01:31:53.785Z,24.97
2022-08-17T01:34:22.162Z,24.95
2022-08-17T01:36:51.157Z,24.95
2022-08-17T01:39:26.761Z,24.94
2022-08-17T01:42:02.270Z,24.95
2022-08-17T01:44:30.165Z,24.94
2022-08-17T01:46:58.061Z,24.93
2022-08-17T01:49:29.019Z,24.93
2022-08-17T01:51:57.487Z,24.92
2022-08-17T01:54:27.656Z,24.92
2022-08-17T01:56:55.501Z,24.87
2022-08-17T01:59:23.360Z,24.83
2022-08-17T02:01:51.418Z,24.79
2022-08-17T02:04:19.517Z,24.76
2022-08-17T02:06:53.279Z,24.72
2022-08-17T02:09:25.287Z,24.69
2022-08-17T02:11:56.335Z,24.64
2022-08-17T02:14:25.748Z,24.59
2022-08-17T02:16:54.729Z,24.55
2022-08-17T02:19:23.077Z,24.52
2022-08-17T02:21:53.960Z,24.49
2022-08-17T02:25:00.414Z,24.43
2022-08-17T02:27:15.290Z,24.40
2022-08-17T02:29:43.224Z,24.37
2022-08-17T02:32:20.997Z,24.33
2022-08-17T02:34:55.806Z,24.26
2022-08-17T02:37:23.688Z,24.22
2022-08-17T02:39:51.573Z,24.21
2022-08-17T02:42:27.729Z,24.21
2022-08-17T02:44:55.757Z,24.22
2022-08-17T02:47:23.834Z,24.23
2022-08-17T02:49:55.619Z,24.25
2022-08-17T02:52:42.002Z,24.24
2022-08-17T02:55:13.855Z,24.22
2022-08-17T02:57:43.583Z,24.23
2022-08-17T03:00:21.251Z,24.18
2022-08-17T03:02:49.767Z,24.18
2022-08-17T03:05:19.768Z,24.12
2022-08-17T03:07:48.748Z,24.09
2022-08-17T03:10:17.304Z,24.10
2022-08-17T03:12:47.057Z,24.10
2022-08-17T03:15:17.524Z,24.08
2022-08-17T03:17:46.104Z,24.07
2022-08-17T03:20:16.108Z,24.02
2022-08-17T03:22:48.083Z,24.01
2022-08-17T03:25:24.335Z,23.98
2022-08-17T03:27:54.107Z,23.94
2022-08-17T03:30:23.515Z,23.88
2022-08-17T03:32:54.779Z,23.83
2022-08-17T03:35:25.598Z,23.76
2022-08-17T03:38:00.945Z,23.74
2022-08-17T03:40:34.574Z,23.71
2022-08-17T03:43:20.170Z,23.65
2022-08-17T03:46:05.904Z,23.62
2022-08-17T03:49:11.034Z,23.60
2022-08-17T03:51:56.177Z,23.57
2022-08-17T03:54:41.248Z,23.55
2022-08-17T03:57:11.584Z,23.51
2022-08-17T03:59:41.731Z,23.50
2022-08-17T04:02:13.863Z,23.46
2022-08-17T04:04:41.852Z,23.44
2022-08-17T04:07:10.199Z,23.46
2022-08-17T04:09:38.077Z,23.46
2022-08-17T04:12:06.943Z,23.47
2022-08-17T04:14:49.497Z,23.47
2022-08-17T04:17:22.330Z,23.49
2022-08-17T04:19:50.312Z,23.50
2022-08-17T04:22:33.070Z,23.51
2022-08-17T04:25:08.203Z,23.53
2022-08-17T04:27:36.150Z,23.53
2022-08-17T04:30:04.140Z,23.52
2022-08-17T04:33:04.973Z,23.53
2022-08-17T04:35:24.709Z,23.53
2022-08-17T04:37:53.352Z,23.53
2022-08-17T04:40:40.487Z,23.53
2022-08-17T04:43:11.092Z,23.49
2022-08-17T04:45:54.858Z,23.46
2022-08-17T04:48:35.338Z,23.43
2022-08-17T04:51:10.389Z,23.40
2022-08-17T04:53:39.416Z,23.37
2022-08-17T04:56:07.929Z,23.34
2022-08-17T04:58:46.111Z,23.33
2022-08-17T05:01:14.941Z,23.32
2022-08-17T05:03:44.883Z,23.32
2022-08-17T05:06:12.837Z,23.29
2022-08-17T05:08:41.029Z,23.27
2022-08-17T05:11:09.087Z,23.28
2022-08-17T05:13:37.387Z,23.28
2022-08-17T05:16:06.135Z,23.28
2022-08-17T05:18:34.213Z,23.28
2022-08-17T05:21:03.975Z,23.29
2022-08-17T05:23:42.041Z,23.28
2022-08-17T05:26:25.603Z,23.29
2022-08-17T05:29:00.317Z,23.30
2022-08-17T05:31:29.705Z,23.30
2022-08-17T05:33:57.660Z,23.31
2022-08-17T05:36:41.808Z,23.35
2022-08-17T05:39:16.846Z,23.39
2022-08-17T05:41:48.703Z,23.42
2022-08-17T05:44:17.048Z,23.47
2022-08-17T05:46:50.074Z,23.50
2022-08-17T05:49:23.015Z,23.55
2022-08-17T05:52:07.138Z,23.58
2022-08-17T05:54:43.531Z,23.62
2022-08-17T05:57:31.916Z,23.66
2022-08-17T06:00:07.730Z,23.73
2022-08-17T06:02:52.327Z,23.77
2022-08-17T06:05:46.086Z,23.82
2022-08-17T06:08:23.303Z,23.88
2022-08-17T06:11:00.297Z,23.93
2022-08-17T06:13:43.730Z,23.96
2022-08-17T06:16:28.221Z,24.01
2022-08-17T06:19:07.564Z,24.04
2022-08-17T06:21:39.252Z,24.05
2022-08-17T06:24:23.813Z,23.93
2022-08-17T06:26:53.748Z,23.93
2022-08-17T06:29:33.719Z,23.96
2022-08-17T06:32:02.635Z,23.99
2022-08-17T06:34:30.878Z,23.97
2022-08-17T06:37:09.589Z,23.98
2022-08-17T06:39:54.043Z,24.02
2022-08-17T06:43:02.437Z,24.00
2022-08-17T06:45:27.405Z,24.07
2022-08-17T06:48:00.559Z,24.15
2022-08-17T06:50:35.968Z,24.20
2022-08-17T06:53:13.736Z,24.29
2022-08-17T06:55:49.354Z,24.36
2022-08-17T06:58:22.301Z,24.50
2022-08-17T07:00:58.536Z,24.62
2022-08-17T07:03:37.693Z,24.74
2022-08-17T07:06:11.937Z,24.87
2022-08-17T07:08:50.442Z,24.98
2022-08-17T07:11:27.219Z,25.11
2022-08-17T07:14:04.519Z,25.19
2022-08-17T07:16:37.426Z,25.28
2022-08-17T07:19:07.355Z,25.38
2022-08-17T07:21:50.204Z,25.36
2022-08-17T07:24:30.862Z,25.39
2022-08-17T07:27:12.939Z,25.47
2022-08-17T07:29:44.880Z,25.56
2022-08-17T07:32:18.390Z,25.63
2022-08-17T07:35:12.196Z,25.70
2022-08-17T07:37:45.683Z,25.78
2022-08-17T07:40:30.475Z,25.83
2022-08-17T07:43:26.145Z,25.81
2022-08-17T07:46:24.332Z,25.86
2022-08-17T07:48:55.301Z,25.91
2022-08-17T07:51:27.914Z,25.93
2022-08-17T07:54:13.125Z,25.98
2022-08-17T07:56:46.765Z,26.01
2022-08-17T07:59:23.609Z,26.06
2022-08-17T08:02:05.439Z,26.09
2022-08-17T08:05:08.660Z,26.18
2022-08-17T08:07:26.981Z,26.27
2022-08-17T08:10:03.964Z,26.33
2022-08-17T08:12:36.927Z,26.41
2022-08-17T08:15:13.740Z,26.50
2022-08-17T08:17:49.946Z,26.56
2022-08-17T08:20:51.555Z,26.61
2022-08-17T08:23:19.479Z,26.71
2022-08-17T08:26:03.712Z,26.73
2022-08-17T08:28:43.439Z,26.72
2022-08-17T08:31:25.189Z,26.71
2022-08-17T08:34:05.601Z,26.81
2022-08-17T08:36:56.842Z,26.87
2022-08-17T08:39:48.243Z,26.99
2022-08-17T08:42:24.156Z,27.10
2022-08-17T08:45:13.983Z,27.20
2022-08-17T08:48:05.133Z,27.36
2022-08-17T08:50:47.486Z,27.56
2022-08-17T08:53:27.354Z,27.74
2022-08-17T08:56:01.062Z,27.70
2022-08-17T08:58:41.969Z,27.72
2022-08-17T09:01:19.306Z,27.72
2022-08-17T09:04:19.651Z,27.68
2022-08-17T09:06:59.343Z,27.63
2022-08-17T09:09:37.002Z,27.62
2022-08-17T09:12:13.928Z,27.60
2022-08-17T09:14:50.213Z,27.60
2022-08-17T09:17:22.468Z,27.57
2022-08-17T09:19:57.336Z,27.58
2022-08-17T09:22:31.818Z,27.66
2022-08-17T09:25:07.455Z,27.65
2022-08-17T09:27:46.315Z,27.67
2022-08-17T09:30:15.057Z,27.74
2022-08-17T09:32:46.140Z,27.83
2022-08-17T09:35:19.831Z,27.93
2022-08-17T09:37:57.249Z,27.98
2022-08-17T09:40:29.933Z,28.07
2022-08-17T09:43:05.752Z,28.11
2022-08-17T09:45:40.071Z,28.12
2022-08-17T09:48:15.693Z,28.16
2022-08-17T09:51:05.342Z,28.19
2022-08-17T09:53:36.554Z,28.17
2022-08-17T09:56:19.900Z,28.11
2022-08-17T09:59:17.241Z,28.05
2022-08-17T10:01:50.578Z,27.95
2022-08-17T10:04:42.004Z,27.85
2022-08-17T10:07:21.748Z,27.78
2022-08-17T10:09:59.250Z,27.70
2022-08-17T10:12:38.337Z,27.70
2022-08-17T10:15:22.412Z,27.62
2022-08-17T10:18:14.955Z,27.55
2022-08-17T10:20:50.612Z,27.57
2022-08-17T10:23:45.552Z,27.49
2022-08-17T10:26:18.157Z,27.39
2022-08-17T10:28:54.714Z,27.35
2022-08-17T10:31:34.635Z,27.32
2022-08-17T10:34:41.518Z,27.21
2022-08-17T10:37:28.282Z,27.29
2022-08-17T10:40:22.079Z,27.29
2022-08-17T10:42:55.573Z,27.20
2022-08-17T10:45:29.489Z,27.15
2022-08-17T10:48:06.282Z,27.10
2022-08-17T10:50:49.457Z,26.99
2022-08-17T10:53:55.212Z,26.96
2022-08-17T10:56:43.508Z,27.00
2022-08-17T10:59:50.898Z,26.97
2022-08-17T11:02:42.267Z,26.96
2022-08-17T11:05:20.792Z,27.02
2022-08-17T11:08:25.014Z,26.86
2022-08-17T11:11:14.557Z,26.79
2022-08-17T11:13:53.003Z,26.84
2022-08-17T11:16:48.027Z,26.81
2022-08-17T11:19:49.408Z,26.78
2022-08-17T11:22:58.022Z,26.77
2022-08-17T11:25:35.717Z,26.59
2022-08-17T11:28:15.046Z,26.61
2022-08-17T11:30:49.576Z,26.56
2022-08-17T11:33:54.929Z,26.49
2022-08-17T11:36:54.132Z,26.44
2022-08-17T11:39:38.012Z,26.40
2022-08-17T11:42:17.539Z,26.40
2022-08-17T11:44:53.956Z,26.38
2022-08-17T11:48:09.521Z,26.43
2022-08-17T11:51:06.843Z,26.48
2022-08-17T11:54:30.996Z,26.51
2022-08-17T11:56:53.422Z,26.59
2022-08-17T11:59:58.476Z,26.62
2022-08-17T12:02:48.267Z,26.82
2022-08-17T12:05:35.255Z,26.96
2022-08-17T12:08:17.814Z,27.09
2022-08-17T12:11:01.532Z,27.25
2022-08-17T12:13:39.853Z,27.45
2022-08-17T12:16:10.066Z,27.67
2022-08-17T12:18:42.484Z,27.87
2022-08-17T12:21:30.037Z,27.86
2022-08-17T12:24:06.416Z,27.96
2022-08-17T12:26:36.857Z,28.10
2022-08-17T12:29:09.368Z,28.16
2022-08-17T12:31:48.492Z,28.33
2022-08-17T12:34:20.634Z,28.44
2022-08-17T12:36:51.305Z,28.52
2022-08-17T12:39:22.034Z,28.63
2022-08-17T12:42:01.957Z,28.63
2022-08-17T12:44:33.286Z,28.62
2022-08-17T12:47:07.013Z,28.54
2022-08-17T12:49:38.470Z,28.52
2022-08-17T12:52:16.058Z,28.60
2022-08-17T12:54:56.779Z,28.83
2022-08-17T12:57:27.040Z,28.97
2022-08-17T12:59:59.657Z,29.01
2022-08-17T13:02:38.985Z,29.05
2022-08-17T13:05:19.008Z,29.11
2022-08-17T13:07:47.823Z,29.34
2022-08-17T13:10:22.798Z,29.57
2022-08-17T13:12:51.433Z,29.76
2022-08-17T13:15:26.511Z,29.72
2022-08-17T13:18:05.109Z,29.70
2022-08-17T13:20:38.044Z,29.67
2022-08-17T13:23:12.487Z,29.72
2022-08-17T13:25:40.869Z,29.79
2022-08-17T13:28:18.936Z,29.80
2022-08-17T13:31:23.624Z,29.75
2022-08-17T13:33:51.570Z,29.72
2022-08-17T13:36:33.668Z,29.72
2022-08-17T13:39:11.650Z,29.75
2022-08-17T13:41:40.067Z,29.94
2022-08-17T13:44:32.236Z,29.99
2022-08-17T13:47:00.737Z,30.13
2022-08-17T13:49:41.835Z,30.16
2022-08-17T13:55:18.825Z,30.38
2022-08-17T13:57:49.482Z,30.46
2022-08-17T14:00:30.628Z,30.51
2022-08-17T14:02:59.287Z,30.53
2022-08-17T14:05:28.143Z,30.47
2022-08-17T14:07:58.374Z,30.53
2022-08-17T14:10:28.106Z,30.47
2022-08-17T14:12:56.084Z,30.49
2022-08-17T14:15:55.635Z,30.45
2022-08-17T14:18:17.732Z,30.28
2022-08-17T14:20:45.835Z,30.23
2022-08-17T14:23:14.509Z,30.11
2022-08-17T14:25:45.755Z,30.08
2022-08-17T14:28:13.582Z,30.01
2022-08-17T14:30:42.606Z,30.04
2022-08-17T14:33:10.651Z,30.14
2022-08-17T14:35:38.574Z,30.26
2022-08-17T14:38:07.029Z,30.14
2022-08-17T14:40:36.003Z,30.13
2022-08-17T14:43:05.309Z,30.10
2022-08-17T14:45:33.562Z,30.10
2022-08-17T14:48:05.705Z,30.09
2022-08-17T14:50:35.671Z,30.12
2022-08-17T14:53:05.182Z,30.36
2022-08-17T14:55:33.841Z,30.48
2022-08-17T14:58:01.780Z,30.53
2022-08-17T15:00:31.560Z,30.52
2022-08-17T15:03:02.006Z,30.50
2022-08-17T15:05:33.727Z,30.45
2022-08-17T15:08:02.876Z,30.51
2022-08-17T15:10:31.686Z,30.60
2022-08-17T15:13:00.173Z,30.63
2022-08-17T15:15:28.973Z,30.64
2022-08-17T15:18:00.401Z,30.69
2022-08-17T15:20:30.651Z,30.60
2022-08-17T15:22:59.547Z,30.59
2022-08-17T15:25:29.385Z,30.60
2022-08-17T15:27:57.533Z,30.64
2022-08-17T15:30:27.058Z,30.72
2022-08-17T15:32:57.305Z,30.75
2022-08-17T15:35:29.455Z,30.66
2022-08-17T15:38:08.072Z,30.68
2022-08-17T15:40:40.957Z,30.79
2022-08-17T15:43:11.367Z,30.77
2022-08-17T15:45:40.129Z,30.75
2022-08-17T15:48:08.985Z,30.65
2022-08-17T15:50:38.573Z,30.59
2022-08-17T15:53:06.513Z,30.57
2022-08-17T15:55:36.688Z,30.55
2022-08-17T15:58:04.738Z,30.41
2022-08-17T16:00:39.789Z,30.47
2022-08-17T16:03:52.368Z,30.48
2022-08-17T16:06:10.991Z,30.41
2022-08-17T16:08:41.624Z,30.37
2022-08-17T16:11:11.027Z,30.27
2022-08-17T16:13:39.846Z,30.15
2022-08-17T16:16:08.666Z,30.10
2022-08-17T16:18:36.660Z,30.09
2022-08-17T16:21:24.288Z,30.05
2022-08-17T16:23:57.337Z,29.98
2022-08-17T16:26:26.288Z,29.95
2022-08-17T16:28:54.987Z,29.95
2022-08-17T16:31:23.103Z,29.92
2022-08-17T16:34:03.883Z,29.96
2022-08-17T16:36:40.106Z,29.87
2022-08-17T16:39:09.377Z,29.84
2022-08-17T16:41:46.239Z,29.81
2022-08-17T16:44:15.678Z,29.72
2022-08-17T16:46:45.558Z,29.61
2022-08-17T16:49:35.079Z,29.46
2022-08-17T16:52:05.981Z,29.32
2022-08-17T16:54:35.952Z,29.30
2022-08-17T16:57:05.323Z,29.25
2022-08-17T16:59:41.063Z,29.25
2022-08-17T17:02:14.317Z,29.21
2022-08-17T17:04:51.179Z,29.13
2022-08-17T17:07:39.027Z,28.97
2022-08-17T17:10:11.493Z,28.95
2022-08-17T17:13:01.689Z,28.95
2022-08-17T17:15:41.471Z,28.92
2022-08-17T17:18:14.713Z,28.92
2022-08-17T17:20:49.110Z,28.84
2022-08-17T17:23:30.995Z,28.82
2022-08-17T17:26:08.801Z,28.72
2022-08-17T17:28:42.621Z,28.63
2022-08-17T17:31:16.939Z,28.51
2022-08-17T17:33:48.258Z,28.51
2022-08-17T17:36:27.133Z,28.49
2022-08-17T17:39:00.291Z,28.50
2022-08-17T17:41:34.171Z,28.44
2022-08-17T17:44:04.525Z,28.45
2022-08-17T17:46:37.970Z,28.34
2022-08-17T17:49:06.355Z,28.19
2022-08-17T17:52:06.745Z,28.14
2022-08-17T17:54:47.826Z,28.07
2022-08-17T17:57:24.721Z,28.01
2022-08-17T18:00:03.421Z,27.97
2022-08-17T18:02:51.949Z,27.92
2022-08-17T18:05:57.396Z,27.85
2022-08-17T18:08:41.990Z,27.91
2022-08-17T18:11:24.709Z,27.93
2022-08-17T18:14:10.735Z,27.80
2022-08-17T18:16:43.113Z,27.72
2022-08-17T18:19:14.937Z,27.69
2022-08-17T18:21:46.534Z,27.64
2022-08-17T18:24:14.899Z,27.60
2022-08-17T18:26:46.989Z,27.58
2022-08-17T18:29:31.662Z,27.56
2022-08-17T18:32:25.470Z,27.57
2022-08-17T18:34:56.190Z,27.59
2022-08-17T18:37:38.514Z,27.48
2022-08-17T18:40:32.697Z,27.37
2022-08-17T18:43:06.815Z,27.32
2022-08-17T18:45:41.935Z,27.22
2022-08-17T18:48:22.270Z,27.19
2022-08-17T18:50:53.562Z,27.21
2022-08-17T18:53:34.257Z,27.18
2022-08-17T18:56:21.269Z,27.15
2022-08-17T18:59:03.536Z,27.21
2022-08-17T19:01:53.381Z,27.22
2022-08-17T19:04:34.564Z,27.14
2022-08-17T19:07:06.964Z,27.09
2022-08-17T19:09:38.300Z,27.05
2022-08-17T19:12:11.286Z,27.00
2022-08-17T19:14:39.581Z,26.92
2022-08-17T19:17:15.305Z,26.92
2022-08-17T19:19:53.411Z,26.91
2022-08-17T19:22:28.665Z,26.93
2022-08-17T19:25:10.551Z,26.89
2022-08-17T19:27:49.160Z,26.85
2022-08-17T19:30:20.419Z,26.76
2022-08-17T19:32:50.651Z,26.72
2022-08-17T19:35:22.160Z,26.68
2022-08-17T19:38:05.586Z,26.64
2022-08-17T19:40:54.234Z,26.58
2022-08-17T19:43:38.474Z,26.53
2022-08-17T19:46:16.308Z,26.52
2022-08-17T19:48:53.173Z,26.45
2022-08-17T19:51:29.928Z,26.41
2022-08-17T19:54:06.637Z,26.34
2022-08-17T19:56:43.504Z,26.35
2022-08-17T19:59:17.170Z,26.34
2022-08-17T20:01:50.011Z,26.35
2022-08-17T20:04:32.638Z,26.32
2022-08-17T20:07:04.574Z,26.27
2022-08-17T20:09:37.931Z,26.18
2022-08-17T20:12:10.769Z,26.04
2022-08-17T20:14:53.926Z,25.99
2022-08-17T20:17:28.168Z,25.99
2022-08-17T20:20:04.612Z,26.01
2022-08-17T20:22:52.266Z,26.04
2022-08-17T20:25:30.249Z,26.03
2022-08-17T20:28:06.240Z,26.03
2022-08-17T20:30:38.478Z,26.02
2022-08-17T20:33:08.978Z,25.99
2022-08-17T20:36:02.724Z,25.92
2022-08-17T20:38:44.514Z,25.88
2022-08-17T20:41:15.569Z,25.87
2022-08-17T20:43:52.119Z,25.78
2022-08-17T20:46:32.879Z,25.65
2022-08-17T20:49:16.459Z,25.58
2022-08-17T20:52:01.459Z,25.50
2022-08-17T20:54:44.322Z,25.44
2022-08-17T20:57:49.011Z,25.37
2022-08-17T21:00:42.687Z,25.33
2022-08-17T21:03:50.613Z,25.28
2022-08-17T21:06:23.538Z,25.26
2022-08-17T21:08:58.821Z,25.20
2022-08-17T21:11:59.943Z,25.12
2022-08-17T21:14:45.606Z,25.10
2022-08-17T21:17:31.821Z,25.07
2022-08-17T21:20:11.408Z,25.08
2022-08-17T21:22:52.968Z,25.06
2022-08-17T21:25:40.613Z,25.05
2022-08-17T21:28:18.719Z,25.07
2022-08-17T21:30:55.231Z,25.06
2022-08-17T21:33:27.379Z,25.08
2022-08-17T21:36:23.796Z,25.01
2022-08-17T21:38:59.464Z,25.02
2022-08-17T21:41:33.521Z,24.98
2022-08-17T21:44:12.114Z,24.94
2022-08-17T21:46:45.849Z,24.89
2022-08-17T21:49:17.848Z,24.88
2022-08-17T21:51:50.982Z,24.85
2022-08-17T21:54:31.328Z,24.79
2022-08-17T21:57:02.636Z,24.73
2022-08-17T21:59:33.184Z,24.69
2022-08-17T22:02:03.439Z,24.64
2022-08-17T22:04:33.442Z,24.60
2022-08-17T22:07:04.071Z,24.56
2022-08-17T22:09:34.379Z,24.54
2022-08-17T22:12:08.027Z,24.50
2022-08-17T22:14:53.243Z,24.45
2022-08-17T22:17:24.594Z,24.40
2022-08-17T22:19:54.854Z,24.39
2022-08-17T22:22:33.362Z,24.34
2022-08-17T22:25:02.943Z,24.31
2022-08-17T22:27:54.492Z,24.25
2022-08-17T22:30:34.934Z,24.22
2022-08-17T22:33:23.542Z,24.20
2022-08-17T22:36:10.340Z,24.10
2022-08-17T22:38:39.006Z,24.09
2022-08-17T22:41:32.033Z,24.04
2022-08-17T22:44:07.428Z,24.07
2022-08-17T22:46:40.615Z,24.08
2022-08-17T22:49:08.939Z,24.06
2022-08-17T22:51:43.872Z,24.07
2022-08-17T22:54:36.002Z,24.06
2022-08-17T22:57:36.024Z,24.04
2022-08-17T23:00:06.734Z,24.03
2022-08-17T23:02:35.795Z,23.99
2022-08-17T23:05:21.789Z,23.96
2022-08-17T23:07:53.704Z,23.94
2022-08-17T23:10:21.675Z,23.92
2022-08-17T23:12:49.555Z,23.91
2022-08-17T23:15:19.278Z,23.90
2022-08-17T23:17:47.664Z,23.87
2022-08-17T23:20:17.641Z,23.83
2022-08-17T23:22:51.694Z,23.75
2022-08-17T23:25:28.094Z,23.69
2022-08-17T23:27:57.498Z,23.65
2022-08-17T23:30:27.216Z,23.61
2022-08-17T23:32:56.540Z,23.54
2022-08-17T23:35:39.094Z,23.47
2022-08-17T23:38:09.022Z,23.40
2022-08-17T23:40:39.581Z,23.38
2022-08-17T23:43:17.548Z,23.34
2022-08-17T23:45:54.520Z,23.30
2022-08-17T23:48:35.096Z,23.26
2022-08-17T23:51:06.052Z,23.21
2022-08-17T23:53:36.715Z,23.18
2022-08-17T23:56:09.273Z,23.13
2022-08-17T23:58:39.316Z,23.10
